sensor_id;sensor_type;location;lat;lon;timestamp;temperature;humidity
58638;DHT22;54976;51.510;7.522;2023-03-01T00:02:03;-0.60;92.60
58638;DHT22;54976;51.510;7.522;2023-03-01T00:05:05;-0.20;92.60
58638;DHT22;54976;51.510;7.522;2023-03-01T00:08:06;-0.20;92.50
58638;DHT22;54976;51.510;7.522;2023-03-01T00:11:23;-0.20;92.10
58638;DHT22;54976;51.510;7.522;2023-03-01T00:14:24;-0.30;92.10
58638;DHT22;54976;51.510;7.522;2023-03-01T00:17:25;-0.40;92.40
58638;DHT22;54976;51.510;7.522;2023-03-01T00:20:25;-0.70;92.70
58638;DHT22;54976;51.510;7.522;2023-03-01T00:23:27;-0.50;92.80
58638;DHT22;54976;51.510;7.522;2023-03-01T00:26:28;-0.50;92.80
58638;DHT22;54976;51.510;7.522;2023-03-01T00:29:29;-0.50;92.90
58638;DHT22;54976;51.510;7.522;2023-03-01T00:32:29;-0.70;93.30
58638;DHT22;54976;51.510;7.522;2023-03-01T00:35:32;-0.70;93.90
58638;DHT22;54976;51.510;7.522;2023-03-01T00:38:40;-0.50;94.10
58638;DHT22;54976;51.510;7.522;2023-03-01T00:41:41;-0.50;93.80
58638;DHT22;54976;51.510;7.522;2023-03-01T00:44:42;-0.50;93.50
58638;DHT22;54976;51.510;7.522;2023-03-01T00:47:43;-0.70;93.60
58638;DHT22;54976;51.510;7.522;2023-03-01T00:50:44;-0.60;93.70
58638;DHT22;54976;51.510;7.522;2023-03-01T00:53:45;-0.50;94.00
58638;DHT22;54976;51.510;7.522;2023-03-01T00:56:46;-0.60;93.70
58638;DHT22;54976;51.510;7.522;2023-03-01T00:59:47;-0.80;93.40
58638;DHT22;54976;51.510;7.522;2023-03-01T01:02:47;-0.80;93.40
58638;DHT22;54976;51.510;7.522;2023-03-01T01:05:48;-0.80;93.50
58638;DHT22;54976;51.510;7.522;2023-03-01T01:08:49;-0.80;94.00
58638;DHT22;54976;51.510;7.522;2023-03-01T01:11:51;-0.90;94.10
58638;DHT22;54976;51.510;7.522;2023-03-01T01:14:51;-1.10;94.10
58638;DHT22;54976;51.510;7.522;2023-03-01T01:17:52;-1.00;94.50
58638;DHT22;54976;51.510;7.522;2023-03-01T01:20:52;-1.30;94.30
58638;DHT22;54976;51.510;7.522;2023-03-01T01:23:54;-1.50;94.60
58638;DHT22;54976;51.510;7.522;2023-03-01T01:26:54;-1.20;95.20
58638;DHT22;54976;51.510;7.522;2023-03-01T01:29:55;-1.10;95.20
58638;DHT22;54976;51.510;7.522;2023-03-01T01:32:56;-1.30;94.80
58638;DHT22;54976;51.510;7.522;2023-03-01T01:35:56;-1.20;94.90
58638;DHT22;54976;51.510;7.522;2023-03-01T01:38:57;-1.40;94.90
58638;DHT22;54976;51.510;7.522;2023-03-01T01:42:00;-1.30;95.00
58638;DHT22;54976;51.510;7.522;2023-03-01T01:45:33;-1.40;95.40
58638;DHT22;54976;51.510;7.522;2023-03-01T01:48:43;-1.70;95.50
58638;DHT22;54976;51.510;7.522;2023-03-01T01:51:47;-1.60;96.00
58638;DHT22;54976;51.510;7.522;2023-03-01T01:54:53;-1.40;97.30
58638;DHT22;54976;51.510;7.522;2023-03-01T01:58:01;-1.90;96.90
58638;DHT22;54976;51.510;7.522;2023-03-01T02:01:03;-1.20;97.00
58638;DHT22;54976;51.510;7.522;2023-03-01T02:04:04;-1.30;96.60
58638;DHT22;54976;51.510;7.522;2023-03-01T02:07:28;-1.30;96.30
58638;DHT22;54976;51.510;7.522;2023-03-01T02:10:29;-1.10;96.20
58638;DHT22;54976;51.510;7.522;2023-03-01T02:13:34;-1.40;96.20
58638;DHT22;54976;51.510;7.522;2023-03-01T02:16:35;-1.00;96.60
58638;DHT22;54976;51.510;7.522;2023-03-01T02:20:26;-1.00;96.20
58638;DHT22;54976;51.510;7.522;2023-03-01T02:23:29;-0.90;95.90
58638;DHT22;54976;51.510;7.522;2023-03-01T02:26:45;-0.80;95.70
58638;DHT22;54976;51.510;7.522;2023-03-01T02:29:47;-0.80;95.30
58638;DHT22;54976;51.510;7.522;2023-03-01T02:32:48;-0.90;94.90
58638;DHT22;54976;51.510;7.522;2023-03-01T02:35:49;-1.10;94.80
58638;DHT22;54976;51.510;7.522;2023-03-01T02:38:53;-1.00;95.00
58638;DHT22;54976;51.510;7.522;2023-03-01T02:41:56;-1.00;95.00
58638;DHT22;54976;51.510;7.522;2023-03-01T02:44:58;-1.00;95.30
58638;DHT22;54976;51.510;7.522;2023-03-01T02:47:58;-1.00;95.60
58638;DHT22;54976;51.510;7.522;2023-03-01T02:54:30;-1.30;95.40
58638;DHT22;54976;51.510;7.522;2023-03-01T02:57:35;-1.20;96.10
58638;DHT22;54976;51.510;7.522;2023-03-01T03:00:39;-1.10;95.70
58638;DHT22;54976;51.510;7.522;2023-03-01T03:03:45;-1.30;95.50
58638;DHT22;54976;51.510;7.522;2023-03-01T03:06:48;-1.40;95.50
58638;DHT22;54976;51.510;7.522;2023-03-01T03:09:49;-1.50;95.40
58638;DHT22;54976;51.510;7.522;2023-03-01T03:12:54;-1.60;96.20
58638;DHT22;54976;51.510;7.522;2023-03-01T03:15:56;-1.50;95.90
58638;DHT22;54976;51.510;7.522;2023-03-01T03:18:57;-1.80;95.70
58638;DHT22;54976;51.510;7.522;2023-03-01T03:22:05;-1.50;95.80
58638;DHT22;54976;51.510;7.522;2023-03-01T03:25:07;-1.60;96.60
58638;DHT22;54976;51.510;7.522;2023-03-01T03:28:10;-1.80;96.20
58638;DHT22;54976;51.510;7.522;2023-03-01T03:31:11;-1.90;96.50
58638;DHT22;54976;51.510;7.522;2023-03-01T03:34:12;-2.10;96.60
58638;DHT22;54976;51.510;7.522;2023-03-01T03:37:18;-2.00;96.80
58638;DHT22;54976;51.510;7.522;2023-03-01T03:40:39;-2.00;96.90
58638;DHT22;54976;51.510;7.522;2023-03-01T03:43:40;-2.10;97.10
58638;DHT22;54976;51.510;7.522;2023-03-01T03:46:42;-2.00;97.90
58638;DHT22;54976;51.510;7.522;2023-03-01T03:49:43;-2.20;98.30
58638;DHT22;54976;51.510;7.522;2023-03-01T03:52:44;-1.80;98.60
58638;DHT22;54976;51.510;7.522;2023-03-01T03:55:45;-1.80;98.00
58638;DHT22;54976;51.510;7.522;2023-03-01T03:58:49;-1.90;97.90
58638;DHT22;54976;51.510;7.522;2023-03-01T04:01:49;-2.10;97.60
58638;DHT22;54976;51.510;7.522;2023-03-01T04:04:50;-1.80;97.60
58638;DHT22;54976;51.510;7.522;2023-03-01T04:07:51;-2.10;97.60
58638;DHT22;54976;51.510;7.522;2023-03-01T04:11:03;-2.10;97.70
58638;DHT22;54976;51.510;7.522;2023-03-01T04:14:24;-2.10;97.60
58638;DHT22;54976;51.510;7.522;2023-03-01T04:17:25;-2.20;97.80
58638;DHT22;54976;51.510;7.522;2023-03-01T04:20:28;-2.30;97.90
58638;DHT22;54976;51.510;7.522;2023-03-01T04:23:29;-2.20;98.10
58638;DHT22;54976;51.510;7.522;2023-03-01T04:26:29;-2.30;98.50
58638;DHT22;54976;51.510;7.522;2023-03-01T04:29:30;-2.50;98.90
58638;DHT22;54976;51.510;7.522;2023-03-01T04:32:31;-2.30;99.10
58638;DHT22;54976;51.510;7.522;2023-03-01T04:35:32;-2.20;98.90
58638;DHT22;54976;51.510;7.522;2023-03-01T04:38:33;-2.50;99.10
58638;DHT22;54976;51.510;7.522;2023-03-01T04:41:34;-2.60;98.80
58638;DHT22;54976;51.510;7.522;2023-03-01T04:44:34;-2.20;99.60
58638;DHT22;54976;51.510;7.522;2023-03-01T04:47:35;-2.20;99.40
58638;DHT22;54976;51.510;7.522;2023-03-01T04:50:38;-2.30;99.10
58638;DHT22;54976;51.510;7.522;2023-03-01T04:53:39;-2.50;98.60
58638;DHT22;54976;51.510;7.522;2023-03-01T04:56:40;-2.20;99.30
58638;DHT22;54976;51.510;7.522;2023-03-01T04:59:40;-2.10;98.80
58638;DHT22;54976;51.510;7.522;2023-03-01T05:02:41;-2.30;98.50
58638;DHT22;54976;51.510;7.522;2023-03-01T05:05:44;-2.20;99.00
58638;DHT22;54976;51.510;7.522;2023-03-01T05:08:45;-2.40;98.80
58638;DHT22;54976;51.510;7.522;2023-03-01T05:11:45;-2.30;99.00
58638;DHT22;54976;51.510;7.522;2023-03-01T05:14:46;-2.30;99.20
58638;DHT22;54976;51.510;7.522;2023-03-01T05:17:48;-2.30;99.10
58638;DHT22;54976;51.510;7.522;2023-03-01T05:20:48;-2.40;99.20
58638;DHT22;54976;51.510;7.522;2023-03-01T05:23:49;-2.50;98.90
58638;DHT22;54976;51.510;7.522;2023-03-01T05:26:50;-2.30;99.80
58638;DHT22;54976;51.510;7.522;2023-03-01T05:29:52;-2.60;99.80
58638;DHT22;54976;51.510;7.522;2023-03-01T05:32:52;-2.30;99.50
58638;DHT22;54976;51.510;7.522;2023-03-01T05:36:00;-2.10;99.90
58638;DHT22;54976;51.510;7.522;2023-03-01T05:39:00;-2.40;99.90
58638;DHT22;54976;51.510;7.522;2023-03-01T05:42:01;-2.40;99.20
58638;DHT22;54976;51.510;7.522;2023-03-01T05:45:02;-2.30;99.30
58638;DHT22;54976;51.510;7.522;2023-03-01T05:48:03;-2.30;99.10
58638;DHT22;54976;51.510;7.522;2023-03-01T05:51:05;-2.30;99.00
58638;DHT22;54976;51.510;7.522;2023-03-01T05:54:06;-2.20;98.90
58638;DHT22;54976;51.510;7.522;2023-03-01T05:57:07;-2.00;99.00
58638;DHT22;54976;51.510;7.522;2023-03-01T06:00:09;-2.30;99.10
58638;DHT22;54976;51.510;7.522;2023-03-01T06:03:12;-2.40;98.60
58638;DHT22;54976;51.510;7.522;2023-03-01T06:06:12;-2.40;98.50
58638;DHT22;54976;51.510;7.522;2023-03-01T06:09:13;-2.40;98.80
58638;DHT22;54976;51.510;7.522;2023-03-01T06:12:14;-2.50;99.00
58638;DHT22;54976;51.510;7.522;2023-03-01T06:15:16;-2.40;98.90
58638;DHT22;54976;51.510;7.522;2023-03-01T06:18:16;-2.50;99.10
58638;DHT22;54976;51.510;7.522;2023-03-01T06:21:17;-2.40;98.90
58638;DHT22;54976;51.510;7.522;2023-03-01T06:24:18;-2.70;99.00
58638;DHT22;54976;51.510;7.522;2023-03-01T06:27:18;-2.50;99.20
58638;DHT22;54976;51.510;7.522;2023-03-01T06:30:21;-2.40;99.90
58638;DHT22;54976;51.510;7.522;2023-03-01T06:33:25;-2.40;99.90
58638;DHT22;54976;51.510;7.522;2023-03-01T06:36:25;-2.40;99.90
58638;DHT22;54976;51.510;7.522;2023-03-01T06:39:27;-2.30;99.60
58638;DHT22;54976;51.510;7.522;2023-03-01T06:42:28;-2.00;99.60
58638;DHT22;54976;51.510;7.522;2023-03-01T06:45:29;-2.00;99.50
58638;DHT22;54976;51.510;7.522;2023-03-01T06:48:29;-2.00;99.40
58638;DHT22;54976;51.510;7.522;2023-03-01T06:51:30;-1.80;99.10
58638;DHT22;54976;51.510;7.522;2023-03-01T06:54:30;-2.10;98.60
58638;DHT22;54976;51.510;7.522;2023-03-01T06:57:31;-2.10;98.60
58638;DHT22;54976;51.510;7.522;2023-03-01T07:00:32;-1.80;98.70
58638;DHT22;54976;51.510;7.522;2023-03-01T07:03:33;-2.00;98.80
58638;DHT22;54976;51.510;7.522;2023-03-01T07:06:33;-1.90;98.70
58638;DHT22;54976;51.510;7.522;2023-03-01T07:09:34;-1.90;98.80
58638;DHT22;54976;51.510;7.522;2023-03-01T07:12:34;-1.70;98.50
58638;DHT22;54976;51.510;7.522;2023-03-01T07:15:35;-1.80;98.30
58638;DHT22;54976;51.510;7.522;2023-03-01T07:18:36;-2.00;98.20
58638;DHT22;54976;51.510;7.522;2023-03-01T07:21:37;-1.80;98.50
58638;DHT22;54976;51.510;7.522;2023-03-01T07:24:38;-1.80;98.30
58638;DHT22;54976;51.510;7.522;2023-03-01T07:27:39;-1.50;98.40
58638;DHT22;54976;51.510;7.522;2023-03-01T07:30:40;-1.40;98.30
58638;DHT22;54976;51.510;7.522;2023-03-01T07:33:41;-2.00;97.90
58638;DHT22;54976;51.510;7.522;2023-03-01T07:36:41;-1.30;98.20
58638;DHT22;54976;51.510;7.522;2023-03-01T07:39:43;-1.30;98.20
58638;DHT22;54976;51.510;7.522;2023-03-01T07:42:44;-1.40;98.10
58638;DHT22;54976;51.510;7.522;2023-03-01T07:45:44;-1.20;98.10
58638;DHT22;54976;51.510;7.522;2023-03-01T07:48:45;-1.10;98.10
58638;DHT22;54976;51.510;7.522;2023-03-01T07:51:46;-1.20;97.90
58638;DHT22;54976;51.510;7.522;2023-03-01T07:54:46;-1.00;97.90
58638;DHT22;54976;51.510;7.522;2023-03-01T07:57:47;-0.90;97.70
58638;DHT22;54976;51.510;7.522;2023-03-01T08:00:47;-0.90;97.60
58638;DHT22;54976;51.510;7.522;2023-03-01T08:03:48;-0.90;97.50
58638;DHT22;54976;51.510;7.522;2023-03-01T08:06:49;-0.70;97.30
58638;DHT22;54976;51.510;7.522;2023-03-01T08:09:49;-0.50;97.00
58638;DHT22;54976;51.510;7.522;2023-03-01T08:12:51;-0.40;96.80
58638;DHT22;54976;51.510;7.522;2023-03-01T08:15:53;-0.30;96.60
58638;DHT22;54976;51.510;7.522;2023-03-01T08:18:54;-0.10;96.10
58638;DHT22;54976;51.510;7.522;2023-03-01T08:21:56;-0.20;95.30
58638;DHT22;54976;51.510;7.522;2023-03-01T08:24:58;0.80;95.00
58638;DHT22;54976;51.510;7.522;2023-03-01T08:27:59;1.50;93.50
58638;DHT22;54976;51.510;7.522;2023-03-01T08:30:59;1.80;92.30
58638;DHT22;54976;51.510;7.522;2023-03-01T08:34:02;2.00;91.10
58638;DHT22;54976;51.510;7.522;2023-03-01T08:37:03;2.30;89.50
58638;DHT22;54976;51.510;7.522;2023-03-01T08:40:04;2.10;86.50
58638;DHT22;54976;51.510;7.522;2023-03-01T08:43:07;2.30;87.00
58638;DHT22;54976;51.510;7.522;2023-03-01T08:46:08;2.70;86.90
58638;DHT22;54976;51.510;7.522;2023-03-01T08:49:16;3.10;83.60
58638;DHT22;54976;51.510;7.522;2023-03-01T08:52:19;3.70;79.20
58638;DHT22;54976;51.510;7.522;2023-03-01T08:55:20;3.90;76.10
58638;DHT22;54976;51.510;7.522;2023-03-01T08:58:21;4.50;73.50
58638;DHT22;54976;51.510;7.522;2023-03-01T09:01:21;5.30;67.20
58638;DHT22;54976;51.510;7.522;2023-03-01T09:04:22;5.80;60.10
58638;DHT22;54976;51.510;7.522;2023-03-01T09:07:23;6.10;57.60
58638;DHT22;54976;51.510;7.522;2023-03-01T09:10:28;6.30;54.90
58638;DHT22;54976;51.510;7.522;2023-03-01T09:13:29;7.00;54.80
58638;DHT22;54976;51.510;7.522;2023-03-01T09:16:31;7.50;51.50
58638;DHT22;54976;51.510;7.522;2023-03-01T09:19:36;7.90;52.80
58638;DHT22;54976;51.510;7.522;2023-03-01T09:22:36;8.60;49.60
58638;DHT22;54976;51.510;7.522;2023-03-01T09:25:37;8.80;48.20
58638;DHT22;54976;51.510;7.522;2023-03-01T09:28:40;9.10;48.20
58638;DHT22;54976;51.510;7.522;2023-03-01T09:31:44;8.90;46.40
58638;DHT22;54976;51.510;7.522;2023-03-01T09:34:45;9.60;45.90
58638;DHT22;54976;51.510;7.522;2023-03-01T09:38:04;9.60;44.50
58638;DHT22;54976;51.510;7.522;2023-03-01T09:44:36;10.30;41.10
58638;DHT22;54976;51.510;7.522;2023-03-01T09:47:38;9.70;42.70
58638;DHT22;54976;51.510;7.522;2023-03-01T09:50:42;10.10;43.20
58638;DHT22;54976;51.510;7.522;2023-03-01T09:53:43;10.30;41.10
58638;DHT22;54976;51.510;7.522;2023-03-01T10:00:28;11.10;40.00
58638;DHT22;54976;51.510;7.522;2023-03-01T10:04:04;10.80;39.30
58638;DHT22;54976;51.510;7.522;2023-03-01T10:10:37;9.50;41.60
58638;DHT22;54976;51.510;7.522;2023-03-01T10:20:25;8.90;44.70
58638;DHT22;54976;51.510;7.522;2023-03-01T10:23:30;9.60;42.20
58638;DHT22;54976;51.510;7.522;2023-03-01T10:26:53;9.20;41.50
58638;DHT22;54976;51.510;7.522;2023-03-01T10:33:44;8.90;42.50
58638;DHT22;54976;51.510;7.522;2023-03-01T10:36:49;9.10;42.50
58638;DHT22;54976;51.510;7.522;2023-03-01T10:40:09;9.20;42.20
58638;DHT22;54976;51.510;7.522;2023-03-01T10:43:11;8.60;42.90
58638;DHT22;54976;51.510;7.522;2023-03-01T10:46:29;8.10;44.00
58638;DHT22;54976;51.510;7.522;2023-03-01T10:49:31;8.50;44.10
58638;DHT22;54976;51.510;7.522;2023-03-01T10:52:41;7.90;43.90
58638;DHT22;54976;51.510;7.522;2023-03-01T10:55:42;7.80;44.50
58638;DHT22;54976;51.510;7.522;2023-03-01T10:59:03;7.70;44.90
58638;DHT22;54976;51.510;7.522;2023-03-01T11:02:23;6.90;45.30
58638;DHT22;54976;51.510;7.522;2023-03-01T11:05:26;6.80;46.60
58638;DHT22;54976;51.510;7.522;2023-03-01T11:08:36;7.00;47.30
58638;DHT22;54976;51.510;7.522;2023-03-01T11:11:36;7.90;46.60
58638;DHT22;54976;51.510;7.522;2023-03-01T11:14:39;8.20;44.90
58638;DHT22;54976;51.510;7.522;2023-03-01T11:17:46;8.60;44.60
58638;DHT22;54976;51.510;7.522;2023-03-01T11:20:46;7.70;44.60
58638;DHT22;54976;51.510;7.522;2023-03-01T11:23:48;7.30;46.10
58638;DHT22;54976;51.510;7.522;2023-03-01T11:26:54;7.10;46.30
58638;DHT22;54976;51.510;7.522;2023-03-01T11:33:18;6.40;47.80
58638;DHT22;54976;51.510;7.522;2023-03-01T11:52:42;6.20;48.90
58638;DHT22;54976;51.510;7.522;2023-03-01T12:22:35;10.50;38.60
58638;DHT22;54976;51.510;7.522;2023-03-01T12:32:28;11.10;38.50
58638;DHT22;54976;51.510;7.522;2023-03-01T12:36:08;11.30;37.70
58638;DHT22;54976;51.510;7.522;2023-03-01T12:46:14;11.80;36.40
58638;DHT22;54976;51.510;7.522;2023-03-01T12:49:31;11.90;36.90
58638;DHT22;54976;51.510;7.522;2023-03-01T12:52:52;12.40;36.50
58638;DHT22;54976;51.510;7.522;2023-03-01T12:55:56;12.50;35.50
58638;DHT22;54976;51.510;7.522;2023-03-01T12:59:18;12.60;36.00
58638;DHT22;54976;51.510;7.522;2023-03-01T13:02:28;12.50;35.80
58638;DHT22;54976;51.510;7.522;2023-03-01T13:09:29;10.60;36.30
58638;DHT22;54976;51.510;7.522;2023-03-01T13:15:51;10.80;36.70
58638;DHT22;54976;51.510;7.522;2023-03-01T13:19:06;10.80;37.10
58638;DHT22;54976;51.510;7.522;2023-03-01T13:22:32;11.50;36.10
58638;DHT22;54976;51.510;7.522;2023-03-01T13:25:33;9.80;37.90
58638;DHT22;54976;51.510;7.522;2023-03-01T13:34:43;10.70;37.10
58638;DHT22;54976;51.510;7.522;2023-03-01T13:37:45;9.30;38.60
58638;DHT22;54976;51.510;7.522;2023-03-01T13:43:55;9.80;37.90
58638;DHT22;54976;51.510;7.522;2023-03-01T13:46:59;9.50;38.70
58638;DHT22;54976;51.510;7.522;2023-03-01T13:50:03;9.20;38.90
58638;DHT22;54976;51.510;7.522;2023-03-01T13:53:06;9.30;39.00
58638;DHT22;54976;51.510;7.522;2023-03-01T13:56:14;9.30;39.30
58638;DHT22;54976;51.510;7.522;2023-03-01T13:59:20;9.10;39.50
58638;DHT22;54976;51.510;7.522;2023-03-01T14:02:21;9.10;39.80
58638;DHT22;54976;51.510;7.522;2023-03-01T14:05:23;9.10;38.70
58638;DHT22;54976;51.510;7.522;2023-03-01T14:08:25;9.80;38.30
58638;DHT22;54976;51.510;7.522;2023-03-01T14:14:57;10.10;36.60
58638;DHT22;54976;51.510;7.522;2023-03-01T14:18:17;10.40;36.30
58638;DHT22;54976;51.510;7.522;2023-03-01T14:21:21;10.30;35.80
58638;DHT22;54976;51.510;7.522;2023-03-01T14:24:23;10.40;36.10
58638;DHT22;54976;51.510;7.522;2023-03-01T14:27:36;10.80;35.80
58638;DHT22;54976;51.510;7.522;2023-03-01T14:30:45;11.50;35.50
58638;DHT22;54976;51.510;7.522;2023-03-01T14:33:55;12.00;35.10
58638;DHT22;54976;51.510;7.522;2023-03-01T14:36:55;12.50;34.50
58638;DHT22;54976;51.510;7.522;2023-03-01T14:39:57;12.40;33.10
58638;DHT22;54976;51.510;7.522;2023-03-01T14:43:00;12.90;32.60
58638;DHT22;54976;51.510;7.522;2023-03-01T14:46:02;13.80;32.00
58638;DHT22;54976;51.510;7.522;2023-03-01T14:49:25;13.60;31.90
58638;DHT22;54976;51.510;7.522;2023-03-01T14:52:33;14.10;30.90
58638;DHT22;54976;51.510;7.522;2023-03-01T14:55:41;15.00;30.40
58638;DHT22;54976;51.510;7.522;2023-03-01T14:58:43;15.70;29.40
58638;DHT22;54976;51.510;7.522;2023-03-01T15:01:44;14.60;29.80
58638;DHT22;54976;51.510;7.522;2023-03-01T15:04:47;14.60;30.00
58638;DHT22;54976;51.510;7.522;2023-03-01T15:07:49;14.60;29.90
58638;DHT22;54976;51.510;7.522;2023-03-01T15:14:38;14.60;29.90
58638;DHT22;54976;51.510;7.522;2023-03-01T15:17:41;14.80;29.40
58638;DHT22;54976;51.510;7.522;2023-03-01T15:20:42;14.80;29.70
58638;DHT22;54976;51.510;7.522;2023-03-01T15:23:55;15.20;29.50
58638;DHT22;54976;51.510;7.522;2023-03-01T15:27:00;15.20;29.40
58638;DHT22;54976;51.510;7.522;2023-03-01T15:30:18;14.50;29.90
58638;DHT22;54976;51.510;7.522;2023-03-01T15:33:36;14.70;29.90
58638;DHT22;54976;51.510;7.522;2023-03-01T15:36:45;12.80;31.00
58638;DHT22;54976;51.510;7.522;2023-03-01T15:39:54;12.10;32.90
58638;DHT22;54976;51.510;7.522;2023-03-01T15:42:55;11.50;33.00
58638;DHT22;54976;51.510;7.522;2023-03-01T15:45:57;11.70;34.30
58638;DHT22;54976;51.510;7.522;2023-03-01T15:49:03;11.10;34.90
58638;DHT22;54976;51.510;7.522;2023-03-01T15:52:08;10.80;35.20
58638;DHT22;54976;51.510;7.522;2023-03-01T15:58:24;9.90;36.90
58638;DHT22;54976;51.510;7.522;2023-03-01T16:01:26;9.80;37.10
58638;DHT22;54976;51.510;7.522;2023-03-01T16:04:26;9.50;37.50
58638;DHT22;54976;51.510;7.522;2023-03-01T16:07:27;9.00;38.70
58638;DHT22;54976;51.510;7.522;2023-03-01T16:10:28;9.00;39.20
58638;DHT22;54976;51.510;7.522;2023-03-01T16:13:29;8.30;39.50
58638;DHT22;54976;51.510;7.522;2023-03-01T16:16:31;7.80;40.50
58638;DHT22;54976;51.510;7.522;2023-03-01T16:19:32;7.50;41.30
58638;DHT22;54976;51.510;7.522;2023-03-01T16:22:32;7.30;42.30
58638;DHT22;54976;51.510;7.522;2023-03-01T16:25:34;7.20;42.50
58638;DHT22;54976;51.510;7.522;2023-03-01T16:28:35;6.90;42.50
58638;DHT22;54976;51.510;7.522;2023-03-01T16:31:36;6.90;43.20
58638;DHT22;54976;51.510;7.522;2023-03-01T16:34:36;6.80;43.20
58638;DHT22;54976;51.510;7.522;2023-03-01T16:37:37;6.70;43.10
58638;DHT22;54976;51.510;7.522;2023-03-01T16:40:38;6.60;42.90
58638;DHT22;54976;51.510;7.522;2023-03-01T16:43:39;6.50;43.50
58638;DHT22;54976;51.510;7.522;2023-03-01T16:46:41;6.40;43.50
58638;DHT22;54976;51.510;7.522;2023-03-01T16:49:43;6.30;43.50
58638;DHT22;54976;51.510;7.522;2023-03-01T16:52:43;6.20;43.50
58638;DHT22;54976;51.510;7.522;2023-03-01T16:55:44;6.10;43.50
58638;DHT22;54976;51.510;7.522;2023-03-01T16:58:45;6.00;43.60
58638;DHT22;54976;51.510;7.522;2023-03-01T17:01:46;5.90;43.90
58638;DHT22;54976;51.510;7.522;2023-03-01T17:04:54;5.80;44.50
58638;DHT22;54976;51.510;7.522;2023-03-01T17:07:55;5.70;44.40
58638;DHT22;54976;51.510;7.522;2023-03-01T17:11:12;5.60;44.60
58638;DHT22;54976;51.510;7.522;2023-03-01T17:14:12;5.50;44.80
58638;DHT22;54976;51.510;7.522;2023-03-01T17:17:15;5.40;45.50
58638;DHT22;54976;51.510;7.522;2023-03-01T17:20:17;5.20;45.50
58638;DHT22;54976;51.510;7.522;2023-03-01T17:23:18;5.10;45.60
58638;DHT22;54976;51.510;7.522;2023-03-01T17:26:18;5.10;45.50
58638;DHT22;54976;51.510;7.522;2023-03-01T17:29:19;5.10;45.40
58638;DHT22;54976;51.510;7.522;2023-03-01T17:32:20;5.00;45.60
58638;DHT22;54976;51.510;7.522;2023-03-01T17:35:20;5.10;45.80
58638;DHT22;54976;51.510;7.522;2023-03-01T17:38:21;4.90;45.80
58638;DHT22;54976;51.510;7.522;2023-03-01T17:41:22;4.80;46.00
58638;DHT22;54976;51.510;7.522;2023-03-01T17:44:24;4.80;46.30
58638;DHT22;54976;51.510;7.522;2023-03-01T17:47:25;4.80;46.10
58638;DHT22;54976;51.510;7.522;2023-03-01T17:50:25;4.70;46.10
58638;DHT22;54976;51.510;7.522;2023-03-01T17:53:26;4.60;46.80
58638;DHT22;54976;51.510;7.522;2023-03-01T17:56:27;4.50;47.30
58638;DHT22;54976;51.510;7.522;2023-03-01T17:59:27;4.40;47.50
58638;DHT22;54976;51.510;7.522;2023-03-01T18:02:30;4.30;47.80
58638;DHT22;54976;51.510;7.522;2023-03-01T18:05:33;4.20;47.50
58638;DHT22;54976;51.510;7.522;2023-03-01T18:08:34;4.30;47.70
58638;DHT22;54976;51.510;7.522;2023-03-01T18:11:35;4.10;47.90
58638;DHT22;54976;51.510;7.522;2023-03-01T18:14:36;3.90;47.90
58638;DHT22;54976;51.510;7.522;2023-03-01T18:17:37;4.20;47.80
58638;DHT22;54976;51.510;7.522;2023-03-01T18:20:38;4.30;47.80
58638;DHT22;54976;51.510;7.522;2023-03-01T18:23:39;4.40;48.10
58638;DHT22;54976;51.510;7.522;2023-03-01T18:26:40;4.20;48.30
58638;DHT22;54976;51.510;7.522;2023-03-01T18:29:41;4.30;49.20
58638;DHT22;54976;51.510;7.522;2023-03-01T18:32:42;3.60;49.00
58638;DHT22;54976;51.510;7.522;2023-03-01T18:35:44;3.70;49.60
58638;DHT22;54976;51.510;7.522;2023-03-01T18:38:45;3.80;50.10
58638;DHT22;54976;51.510;7.522;2023-03-01T18:41:46;3.80;50.50
58638;DHT22;54976;51.510;7.522;2023-03-01T18:44:47;3.70;50.70
58638;DHT22;54976;51.510;7.522;2023-03-01T18:47:48;3.70;51.10
58638;DHT22;54976;51.510;7.522;2023-03-01T18:50:49;3.80;51.50
58638;DHT22;54976;51.510;7.522;2023-03-01T18:53:50;3.60;51.50
58638;DHT22;54976;51.510;7.522;2023-03-01T18:56:50;3.70;51.60
58638;DHT22;54976;51.510;7.522;2023-03-01T18:59:51;3.20;51.00
58638;DHT22;54976;51.510;7.522;2023-03-01T19:02:51;3.70;51.40
58638;DHT22;54976;51.510;7.522;2023-03-01T19:05:52;3.50;51.40
58638;DHT22;54976;51.510;7.522;2023-03-01T19:08:53;3.80;51.70
58638;DHT22;54976;51.510;7.522;2023-03-01T19:11:53;3.70;51.90
58638;DHT22;54976;51.510;7.522;2023-03-01T19:14:58;3.60;52.00
58638;DHT22;54976;51.510;7.522;2023-03-01T19:17:58;3.90;52.50
58638;DHT22;54976;51.510;7.522;2023-03-01T19:21:02;3.80;52.50
58638;DHT22;54976;51.510;7.522;2023-03-01T19:24:04;3.50;52.60
58638;DHT22;54976;51.510;7.522;2023-03-01T19:27:04;3.80;53.10
58638;DHT22;54976;51.510;7.522;2023-03-01T19:30:06;3.80;53.20
58638;DHT22;54976;51.510;7.522;2023-03-01T19:33:06;3.70;53.20
58638;DHT22;54976;51.510;7.522;2023-03-01T19:36:09;3.70;53.60
58638;DHT22;54976;51.510;7.522;2023-03-01T19:39:11;3.50;53.70
58638;DHT22;54976;51.510;7.522;2023-03-01T19:42:12;3.10;53.60
58638;DHT22;54976;51.510;7.522;2023-03-01T19:45:13;3.60;54.10
58638;DHT22;54976;51.510;7.522;2023-03-01T19:48:13;3.70;54.40
58638;DHT22;54976;51.510;7.522;2023-03-01T19:51:14;3.60;54.40
58638;DHT22;54976;51.510;7.522;2023-03-01T19:54:15;3.60;54.70
58638;DHT22;54976;51.510;7.522;2023-03-01T19:57:19;3.30;54.90
58638;DHT22;54976;51.510;7.522;2023-03-01T20:00:20;3.30;55.50
58638;DHT22;54976;51.510;7.522;2023-03-01T20:03:21;3.10;55.70
58638;DHT22;54976;51.510;7.522;2023-03-01T20:06:21;3.30;56.10
58638;DHT22;54976;51.510;7.522;2023-03-01T20:09:22;3.10;55.90
58638;DHT22;54976;51.510;7.522;2023-03-01T20:12:23;2.90;55.90
58638;DHT22;54976;51.510;7.522;2023-03-01T20:15:23;3.40;56.20
58638;DHT22;54976;51.510;7.522;2023-03-01T20:18:25;3.10;56.30
58638;DHT22;54976;51.510;7.522;2023-03-01T20:21:26;3.10;56.50
58638;DHT22;54976;51.510;7.522;2023-03-01T20:24:27;3.20;56.90
58638;DHT22;54976;51.510;7.522;2023-03-01T20:27:27;3.10;57.20
58638;DHT22;54976;51.510;7.522;2023-03-01T20:30:28;3.20;57.40
58638;DHT22;54976;51.510;7.522;2023-03-01T20:33:29;3.00;57.60
58638;DHT22;54976;51.510;7.522;2023-03-01T20:36:29;2.90;57.80
58638;DHT22;54976;51.510;7.522;2023-03-01T20:39:30;3.00;57.90
58638;DHT22;54976;51.510;7.522;2023-03-01T20:42:31;3.10;58.30
58638;DHT22;54976;51.510;7.522;2023-03-01T20:45:31;2.90;58.50
58638;DHT22;54976;51.510;7.522;2023-03-01T20:48:32;3.00;58.90
58638;DHT22;54976;51.510;7.522;2023-03-01T20:51:33;2.40;59.00
58638;DHT22;54976;51.510;7.522;2023-03-01T20:54:34;2.70;59.70
58638;DHT22;54976;51.510;7.522;2023-03-01T20:57:35;2.40;60.70
58638;DHT22;54976;51.510;7.522;2023-03-01T21:00:36;2.40;61.40
58638;DHT22;54976;51.510;7.522;2023-03-01T21:03:36;2.50;61.70
58638;DHT22;54976;51.510;7.522;2023-03-01T21:06:37;2.60;63.00
58638;DHT22;54976;51.510;7.522;2023-03-01T21:09:38;2.20;62.90
58638;DHT22;54976;51.510;7.522;2023-03-01T21:12:39;2.30;64.10
58638;DHT22;54976;51.510;7.522;2023-03-01T21:15:39;1.80;64.10
58638;DHT22;54976;51.510;7.522;2023-03-01T21:18:40;1.70;65.10